Terminal Aerodrome Forecast
Issued by NWS

Current Version | Previous Version | Text Only | Print | Product List | Glossary On
Versions: 1 2 3 4 5 6 7 8 9 10 11 12 13 14 15 16 17 18
000
FTUS43 KMQT 281125
TAFIWD
TAF
KIWD 281125Z 2812/2912 17011KT P6SM BKN200
     FM281300 17011G18KT P6SM VCSH BKN150
     FM281600 16013G22KT 6SM -SHRA SCT035 OVC080
     FM281800 15010G18KT 6SM -SHRA SCT020 OVC035
     FM282100 14010G20KT 6SM -SHRA SCT015 OVC025
     FM290000 17005KT 5SM -SHRA SCT008 OVC015
     FM290100 VRB03KT 5SM -SHRA SCT003 OVC008
     FM290300 28005KT 1 1/2SM -SHRA OVC003=

USA.gov is the U.S. government's official web portal to all federal, state and local government web resources and services.